Time;durP1;ratioP1;P1;durP2;ratioP2;P2;SDS_P1;SDS_P2;PMS_P1;PMS_P2;Temp;Humidity;BMP_temperature;BMP_pressure;BME280_temperature;BME280_humidity;BME280_pressure;Samples;Min_cycle;Max_cycle;Signal;HPM_P1;HPM_P2
2022/08/16 00:02:01;;;;;;;8.80;7.80;;;;;;;-140.72;100.00;52279.25;4972951;28;20395;-77
2022/08/16 00:04:27;;;;;;;9.88;8.02;;;;;;;-140.72;100.00;52295.50;4977442;28;20050;-75
2022/08/16 00:06:53;;;;;;;12.18;9.55;;;;;;;-140.72;100.00;52258.97;4987334;28;20023;-74
2022/08/16 00:09:18;;;;;;;12.82;11.05;;;;;;;-140.72;100.00;52287.38;4970297;28;20407;-75
2022/08/16 00:11:45;;;;;;;12.95;10.60;;;;;;;-140.72;100.00;52269.13;4969912;28;20062;-74
2022/08/16 00:14:14;;;;;;;12.40;10.75;;;;;;;-140.72;100.00;52277.22;4970807;28;20055;-74
2022/08/16 00:16:40;;;;;;;15.35;11.18;;;;;;;-140.72;100.00;52289.41;4974669;28;20625;-74
2022/08/16 00:19:05;;;;;;;11.75;10.25;;;;;;;-140.72;100.00;52265.06;4964428;28;20059;-74
2022/08/16 00:21:31;;;;;;;10.05;8.88;;;;;;;-140.72;100.00;52279.25;4967798;28;20027;-74
2022/08/16 00:23:56;;;;;;;9.68;8.60;;;;;;;-140.72;100.00;52252.88;4980825;28;20076;-75
2022/08/16 00:26:23;;;;;;;11.52;9.15;;;;;;;-140.72;100.00;52254.91;4970367;28;20045;-74
2022/08/16 00:28:48;;;;;;;11.38;9.82;;;;;;;-140.72;100.00;52295.50;4971598;28;20031;-75
2022/08/16 00:31:14;;;;;;;13.23;10.45;;;;;;;-140.72;100.00;52301.59;4970172;28;20550;-75
2022/08/16 00:33:42;;;;;;;11.43;9.23;;;;;;;-140.72;100.00;52305.63;4967354;28;20400;-74
2022/08/16 00:36:08;;;;;;;13.48;9.95;;;;;;;-140.72;100.00;52309.69;4970895;28;20037;-77
2022/08/16 00:38:33;;;;;;;12.80;11.07;;;;;;;-140.72;100.00;52277.22;4966605;28;20392;-74
2022/08/16 00:41:00;;;;;;;13.00;9.32;;;;;;;-140.72;100.00;52289.41;4961487;28;20034;-75
2022/08/16 00:43:32;;;;;;;14.05;10.73;;;;;;;-140.72;100.00;52295.50;4985646;28;20027;-75
2022/08/16 00:46:21;;;;;;;14.02;9.15;;;;;;;-140.72;100.00;52254.91;4970396;28;20031;-77
2022/08/16 00:48:49;;;;;;;10.87;9.27;;;;;;;-140.72;100.00;52277.22;4967614;28;20023;-75
2022/08/16 00:51:16;;;;;;;12.02;10.40;;;;;;;-140.72;100.00;52299.56;4968943;28;20039;-74
2022/08/16 00:53:45;;;;;;;12.13;8.80;;;;;;;-140.72;100.00;52321.88;4986685;28;20030;-74
2022/08/16 00:56:20;;;;;;;15.27;9.98;;;;;;;-140.72;100.00;52287.38;4971538;28;20112;-74
2022/08/16 00:58:46;;;;;;;15.25;10.40;;;;;;;-140.72;100.00;52279.25;4969337;28;20035;-74
2022/08/16 01:01:15;;;;;;;13.77;11.45;;;;;;;-140.72;100.00;52301.59;4985733;28;20051;-74
2022/08/16 01:03:43;;;;;;;14.13;11.13;;;;;;;-140.72;100.00;52297.53;4969464;28;20319;-75
2022/08/16 01:06:10;;;;;;;12.70;10.90;;;;;;;-140.72;100.00;52269.13;4970866;28;20101;-74
2022/08/16 01:08:37;;;;;;;13.68;10.25;;;;;;;-140.72;100.00;52271.16;4967066;28;20031;-74
2022/08/16 01:11:04;;;;;;;12.65;9.93;;;;;;;-140.72;100.00;52301.59;4969384;28;20023;-74
2022/08/16 01:13:34;;;;;;;12.95;10.45;;;;;;;-140.72;100.00;52273.19;4970084;28;20022;-74
2022/08/16 01:16:05;;;;;;;10.40;9.25;;;;;;;-140.72;100.00;52307.66;4984079;28;20392;-74
2022/08/16 01:18:53;;;;;;;13.27;10.75;;;;;;;-140.72;100.00;52271.16;4971283;28;20019;-73
2022/08/16 01:21:42;;;;;;;12.50;10.20;;;;;;;-140.72;100.00;52267.09;4969693;28;20070;-74
2022/08/16 01:24:28;;;;;;;12.48;8.88;;;;;;;-140.72;100.00;52291.44;4969939;28;20474;-74
2022/08/16 01:27:04;;;;;;;12.85;10.05;;;;;;;-140.72;100.00;52338.09;4970124;28;20057;-73
2022/08/16 01:30:09;;;;;;;11.82;10.32;;;;;;;-140.72;100.00;52301.59;4968237;28;20043;-74
2022/08/16 01:32:42;;;;;;;12.75;10.50;;;;;;;-140.72;100.00;52317.81;4986161;28;20034;-73
2022/08/16 01:35:22;;;;;;;9.50;8.52;;;;;;;-140.72;100.00;52273.19;4970937;28;20053;-74
2022/08/16 01:37:51;;;;;;;11.80;9.02;;;;;;;-140.72;100.00;52301.59;4986446;28;20019;-75
2022/08/16 01:40:20;;;;;;;10.77;9.00;;;;;;;-140.72;100.00;52287.38;4986145;28;20027;-74
2022/08/16 01:42:48;;;;;;;11.13;9.30;;;;;;;-140.72;100.00;52301.59;4971314;28;20471;-75
2022/08/16 01:45:14;;;;;;;10.70;8.15;;;;;;;-140.72;100.00;52334.03;4971310;28;20041;-74
2022/08/16 01:47:41;;;;;;;11.48;9.32;;;;;;;-140.72;100.00;52317.81;4967349;28;20050;-75
2022/08/16 01:50:08;;;;;;;11.35;8.40;;;;;;;-140.72;100.00;52303.59;4985537;28;20033;-75
2022/08/16 01:52:34;;;;;;;14.85;10.35;;;;;;;-140.72;100.00;52336.06;4970408;28;20027;-74
2022/08/16 01:54:59;;;;;;;13.73;10.30;;;;;;;-140.72;100.00;52305.63;4969909;28;20023;-74
2022/08/16 01:57:26;;;;;;;14.02;9.95;;;;;;;-140.72;100.00;52346.22;4986327;28;20045;-76
2022/08/16 01:59:52;;;;;;;11.50;8.20;;;;;;;-140.72;100.00;52313.75;4966690;28;20031;-75
2022/08/16 02:02:18;;;;;;;14.45;10.15;;;;;;;-140.72;100.00;52281.28;4967643;28;20031;-76
2022/08/16 02:07:29;;;;;;;11.40;10.15;;;;;;;-140.72;100.00;52305.63;4969798;28;20043;-74
2022/08/16 02:09:54;;;;;;;12.80;9.88;;;;;;;-140.72;100.00;52307.66;4968295;28;20043;-74
2022/08/16 02:12:20;;;;;;;13.93;11.10;;;;;;;-140.72;100.00;52285.34;4987189;28;20057;-74
2022/08/16 02:14:45;;;;;;;13.70;10.30;;;;;;;-140.72;100.00;52303.59;4972755;28;20023;-76
2022/08/16 02:17:11;;;;;;;13.30;11.52;;;;;;;-140.72;100.00;52303.59;4973069;28;20030;-74
2022/08/16 02:19:40;;;;;;;14.43;9.48;;;;;;;-140.72;100.00;52336.06;4972888;28;20045;-74
2022/08/16 02:22:08;;;;;;;12.60;11.15;;;;;;;-140.72;100.00;52350.28;4988433;28;20034;-75
2022/08/16 02:24:34;;;;;;;18.35;11.48;;;;;;;-140.72;100.00;52311.72;4973423;28;20114;-76
2022/08/16 02:27:00;;;;;;;14.10;10.98;;;;;;;-140.72;100.00;52317.81;4986019;28;20428;-76
2022/08/16 02:29:25;;;;;;;13.50;11.00;;;;;;;-140.72;100.00;52325.94;4970252;28;20042;-75
2022/08/16 02:31:51;;;;;;;14.10;9.88;;;;;;;-140.72;100.00;52313.75;4988317;28;20583;-77
2022/08/16 02:34:18;;;;;;;12.20;9.18;;;;;;;-140.72;100.00;52334.03;4982675;28;20585;-74
2022/08/16 02:36:47;;;;;;;13.23;10.77;;;;;;;-140.72;100.00;52336.06;4968212;28;20390;-74
2022/08/16 02:39:14;;;;;;;13.70;11.00;;;;;;;-140.72;100.00;52321.88;4970149;28;20069;-75
2022/08/16 02:41:42;;;;;;;14.00;12.60;;;;;;;-140.72;100.00;52325.94;4989145;28;20037;-74
2022/08/16 02:44:11;;;;;;;11.63;10.32;;;;;;;-140.72;100.00;52356.38;4968937;28;20026;-74
2022/08/16 02:46:36;;;;;;;14.23;12.07;;;;;;;-140.72;100.00;52299.56;4986867;28;20532;-74
2022/08/16 02:49:04;;;;;;;12.40;9.48;;;;;;;-140.72;100.00;52313.75;4967016;28;20142;-74
2022/08/16 02:51:29;;;;;;;10.77;8.98;;;;;;;-140.72;100.00;52323.91;4971387;28;20035;-74
2022/08/16 02:53:55;;;;;;;14.13;9.32;;;;;;;-140.72;100.00;52364.47;4984509;28;20081;-74
2022/08/16 02:56:21;;;;;;;11.88;10.38;;;;;;;-140.72;100.00;52321.88;4988513;28;20039;-74
2022/08/16 02:58:49;;;;;;;11.35;10.10;;;;;;;-140.72;100.00;52313.75;4959924;28;20047;-73
2022/08/16 03:01:20;;;;;;;12.88;11.15;;;;;;;-140.72;100.00;52338.09;4976073;28;20027;-75
2022/08/16 03:03:46;;;;;;;13.93;10.32;;;;;;;-140.72;100.00;52344.19;4971651;28;20475;-75
2022/08/16 03:06:12;;;;;;;19.00;11.68;;;;;;;-140.72;100.00;52330.00;4971384;28;20022;-75
2022/08/16 03:08:37;;;;;;;16.52;12.60;;;;;;;-140.72;100.00;52327.97;4972306;28;20038;-75
2022/08/16 03:11:03;;;;;;;15.30;12.48;;;;;;;-140.72;100.00;52368.53;4987167;28;20340;-75
2022/08/16 03:13:28;;;;;;;17.23;13.02;;;;;;;-140.72;100.00;52348.25;4988246;28;20037;-74
2022/08/16 03:15:54;;;;;;;13.13;11.20;;;;;;;-140.72;100.00;52354.34;4972806;28;20043;-75
2022/08/16 03:18:19;;;;;;;15.10;12.73;;;;;;;-140.72;100.00;52370.56;4972574;28;20499;-74
2022/08/16 03:20:45;;;;;;;16.27;13.27;;;;;;;-140.72;100.00;52362.44;4971679;28;20109;-75
2022/08/16 03:23:10;;;;;;;17.60;13.38;;;;;;;-140.72;100.00;52358.41;4987027;28;20062;-75
2022/08/16 03:25:36;;;;;;;15.23;12.88;;;;;;;-140.72;100.00;52356.38;4987079;28;20030;-75
2022/08/16 03:28:04;;;;;;;15.75;14.02;;;;;;;-140.72;100.00;52325.94;4987214;28;20026;-75
2022/08/16 03:30:31;;;;;;;16.38;12.73;;;;;;;-140.72;100.00;52327.97;4988083;28;20042;-75
2022/08/16 03:32:57;;;;;;;18.95;14.45;;;;;;;-140.72;100.00;52332.03;4986236;28;20074;-74
2022/08/16 03:35:27;;;;;;;16.33;14.30;;;;;;;-140.72;100.00;52330.00;4971796;28;20057;-74
2022/08/16 03:37:57;;;;;;;16.35;13.80;;;;;;;-140.72;100.00;52370.56;4971600;28;20058;-76
2022/08/16 03:40:23;;;;;;;14.82;13.00;;;;;;;-140.72;100.00;52338.09;4970790;28;20506;-76
2022/08/16 03:42:49;;;;;;;17.20;14.38;;;;;;;-140.72;100.00;52325.94;4972689;28;20034;-76
2022/08/16 03:45:14;;;;;;;19.02;13.57;;;;;;;-140.72;100.00;52340.13;4987511;28;20034;-75
2022/08/16 03:47:41;;;;;;;16.88;14.25;;;;;;;-140.72;100.00;52366.50;4970299;28;20122;-76
2022/08/16 03:50:07;;;;;;;17.08;13.02;;;;;;;-140.72;100.00;52403.03;4972707;28;20157;-75
2022/08/16 03:52:34;;;;;;;20.40;14.52;;;;;;;-140.72;100.00;52366.50;4985507;28;20114;-75
2022/08/16 03:55:00;;;;;;;19.08;14.75;;;;;;;-140.72;100.00;52344.19;4957633;28;20027;-75
2022/08/16 03:57:27;;;;;;;19.25;15.90;;;;;;;-140.72;100.00;52342.16;4957357;28;20039;-75
2022/08/16 03:59:58;;;;;;;19.98;16.20;;;;;;;-140.72;100.00;52325.94;4971903;28;20027;-75
2022/08/16 04:02:23;;;;;;;18.90;16.50;;;;;;;-140.72;100.00;52321.88;4970657;28;20468;-75
2022/08/16 04:04:49;;;;;;;19.73;15.68;;;;;;;-140.72;100.00;52360.44;4971324;28;20038;-75
2022/08/16 04:07:15;;;;;;;20.25;17.13;;;;;;;-140.72;100.00;52346.22;4986179;28;20113;-75
2022/08/16 04:09:40;;;;;;;18.20;14.77;;;;;;;-140.72;100.00;52384.78;4971001;28;20033;-76
2022/08/16 04:12:07;;;;;;;23.30;17.98;;;;;;;-140.72;100.00;52372.59;4958838;28;20038;-75
2022/08/16 04:14:35;;;;;;;21.48;16.45;;;;;;;-140.72;100.00;52340.13;4970740;28;20432;-75
2022/08/16 04:17:03;;;;;;;18.70;15.40;;;;;;;-140.72;100.00;52356.38;4970587;28;20039;-75
2022/08/16 04:19:33;;;;;;;20.20;15.88;;;;;;;-140.72;100.00;52352.31;4974103;28;20050;-75
2022/08/16 04:21:59;;;;;;;18.90;14.85;;;;;;;-140.72;100.00;52354.34;4968576;28;20109;-75
2022/08/16 04:24:24;;;;;;;22.17;16.63;;;;;;;-140.72;100.00;52342.16;4971889;28;20117;-75
2022/08/16 04:26:49;;;;;;;20.70;16.38;;;;;;;-140.72;100.00;52344.19;4971731;28;20098;-75
2022/08/16 04:29:15;;;;;;;21.50;16.67;;;;;;;-140.72;100.00;52374.63;4968148;28;20117;-76
2022/08/16 04:31:40;;;;;;;21.13;16.25;;;;;;;-140.72;100.00;52327.97;4971836;28;20078;-76
2022/08/16 04:34:06;;;;;;;18.70;15.25;;;;;;;-140.72;100.00;52378.69;4969517;28;20122;-76
2022/08/16 04:36:31;;;;;;;16.70;13.95;;;;;;;-140.72;100.00;52344.19;4970408;28;20405;-75
2022/08/16 04:38:57;;;;;;;20.40;17.08;;;;;;;-140.72;100.00;52386.81;4978745;28;20057;-75
2022/08/16 04:41:23;;;;;;;24.48;17.02;;;;;;;-140.72;100.00;52366.50;4969217;28;20471;-75
2022/08/16 04:43:50;;;;;;;19.83;15.68;;;;;;;-140.72;100.00;52366.50;4969783;28;20078;-76
2022/08/16 04:46:16;;;;;;;21.30;15.82;;;;;;;-140.72;100.00;52330.00;4989562;28;20134;-76
2022/08/16 04:48:42;;;;;;;19.80;15.93;;;;;;;-140.72;100.00;52323.91;4982555;28;20029;-77
2022/08/16 04:51:09;;;;;;;19.98;15.65;;;;;;;-140.72;100.00;52390.84;4971857;28;20126;-72
2022/08/16 04:53:35;;;;;;;18.88;16.40;;;;;;;-140.72;100.00;52398.97;4986142;28;20034;-72
2022/08/16 04:56:01;;;;;;;21.15;16.83;;;;;;;-140.72;100.00;52364.47;4969792;28;20018;-73
2022/08/16 04:58:27;;;;;;;18.67;15.75;;;;;;;-140.72;100.00;52362.44;4970602;28;20018;-75
2022/08/16 05:00:53;;;;;;;24.35;18.15;;;;;;;-140.72;100.00;52330.00;4971132;28;20105;-70
2022/08/16 05:03:19;;;;;;;22.30;15.95;;;;;;;-140.72;100.00;52350.28;4970090;28;20172;-70
2022/08/16 05:05:45;;;;;;;21.00;17.20;;;;;;;-140.72;100.00;52305.63;4969295;28;20038;-70
2022/08/16 05:08:11;;;;;;;17.92;15.77;;;;;;;-140.72;100.00;52382.75;4969125;28;20097;-70
2022/08/16 05:10:37;;;;;;;18.15;15.85;;;;;;;-140.72;100.00;52388.84;4969340;28;20027;-71
2022/08/16 05:13:03;;;;;;;23.73;15.07;;;;;;;-140.72;100.00;52378.69;4969587;28;20022;-72
2022/08/16 05:15:29;;;;;;;18.17;14.38;;;;;;;-140.72;100.00;52362.44;4983710;28;20043;-71
2022/08/16 05:17:55;;;;;;;20.85;16.65;;;;;;;-140.72;100.00;52372.59;4969132;28;20543;-73
2022/08/16 05:20:22;;;;;;;18.90;16.15;;;;;;;-140.72;100.00;52346.22;4967039;28;20035;-69
2022/08/16 05:22:47;;;;;;;19.33;16.10;;;;;;;-140.72;100.00;52360.44;4971071;28;20026;-69
2022/08/16 05:25:13;;;;;;;21.63;17.60;;;;;;;-140.72;100.00;52360.44;4970084;28;20145;-69
2022/08/16 05:27:40;;;;;;;18.85;15.52;;;;;;;-140.72;100.00;52334.03;4985597;28;20399;-69
2022/08/16 05:30:08;;;;;;;20.45;15.88;;;;;;;-140.72;100.00;52348.25;4970293;28;20026;-70
2022/08/16 05:32:34;;;;;;;19.75;17.33;;;;;;;-140.72;100.00;52319.84;4969796;28;20027;-70
2022/08/16 05:35:00;;;;;;;18.63;16.10;;;;;;;-140.72;100.00;52358.41;4968921;28;20038;-69
2022/08/16 05:37:25;;;;;;;19.88;15.05;;;;;;;-140.72;100.00;52346.22;4985399;28;20031;-71
2022/08/16 05:39:51;;;;;;;19.85;15.18;;;;;;;-140.72;100.00;52374.63;4970046;28;20026;-71
2022/08/16 05:42:16;;;;;;;17.73;15.20;;;;;;;-140.72;100.00;52336.06;4970282;28;20476;-69
2022/08/16 05:44:44;;;;;;;18.83;15.98;;;;;;;-140.72;100.00;52346.22;4970723;28;20031;-75
2022/08/16 05:47:10;;;;;;;19.08;15.85;;;;;;;-140.72;100.00;52350.28;4971459;28;20034;-76
2022/08/16 05:49:35;;;;;;;20.13;16.73;;;;;;;-140.72;100.00;52309.69;4989861;28;20026;-76
2022/08/16 05:52:00;;;;;;;17.15;14.82;;;;;;;-140.72;100.00;52311.72;4973625;28;20126;-77
2022/08/16 05:54:27;;;;;;;21.65;17.48;;;;;;;-140.72;100.00;52338.09;4973226;28;20081;-76
2022/08/16 05:56:54;;;;;;;19.50;16.60;;;;;;;-140.72;100.00;52340.13;4973613;28;20034;-77
2022/08/16 05:59:20;;;;;;;18.52;14.98;;;;;;;-140.72;100.00;52342.16;4979938;28;20061;-77
2022/08/16 06:01:49;;;;;;;19.85;15.13;;;;;;;-140.72;100.00;52336.06;4971986;28;20046;-76
2022/08/16 06:04:18;;;;;;;18.70;14.48;;;;;;;-140.72;100.00;52311.72;4988822;28;20482;-76
2022/08/16 06:06:45;;;;;;;17.77;14.27;;;;;;;-140.72;100.00;52293.47;4973528;28;20027;-76
2022/08/16 06:09:11;;;;;;;24.35;16.35;;;;;;;-140.72;100.00;52325.94;4963059;28;20035;-76
2022/08/16 06:11:37;;;;;;;18.38;14.63;;;;;;;-140.72;100.00;52342.16;4976563;28;20026;-76
2022/08/16 06:14:04;;;;;;;18.25;16.23;;;;;;;-140.72;100.00;52330.00;4972059;28;20495;-74
2022/08/16 06:16:29;;;;;;;19.95;16.55;;;;;;;-140.72;100.00;52299.56;4972294;28;20475;-74
2022/08/16 06:18:54;;;;;;;18.70;15.70;;;;;;;-140.72;100.00;52313.75;4989396;28;20037;-75
2022/08/16 06:21:20;;;;;;;18.77;16.23;;;;;;;-140.72;100.00;52313.75;4985913;28;20031;-73
2022/08/16 06:23:45;;;;;;;22.70;16.35;;;;;;;-140.72;100.00;52323.91;4972458;28;20149;-73
2022/08/16 06:26:12;;;;;;;20.52;16.58;;;;;;;-140.72;100.00;52342.16;4969319;28;20110;-76
2022/08/16 06:28:37;;;;;;;22.80;15.13;;;;;;;-140.72;100.00;52297.53;4973653;28;20031;-74
2022/08/16 06:31:08;;;;;;;20.23;15.73;;;;;;;-140.72;100.00;52303.59;4974762;28;20027;-74
2022/08/16 06:33:34;;;;;;;19.48;15.32;;;;;;;-140.72;100.00;52338.09;4972075;28;20432;-74
2022/08/16 06:35:59;;;;;;;20.98;16.02;;;;;;;-140.72;100.00;52323.91;4972978;28;20081;-73
2022/08/16 06:38:25;;;;;;;20.23;14.45;;;;;;;-140.72;100.00;52271.16;4972062;28;20039;-73
2022/08/16 06:40:50;;;;;;;19.88;14.90;;;;;;;-140.72;100.00;52303.59;4972146;28;20011;-74
2022/08/16 06:43:22;;;;;;;17.50;15.10;;;;;;;-140.72;100.00;52330.00;4971845;28;20034;-73
2022/08/16 06:45:47;;;;;;;21.33;16.60;;;;;;;-140.72;100.00;52307.66;4973477;28;20030;-74
2022/08/16 06:48:13;;;;;;;21.73;17.15;;;;;;;-140.72;100.00;52285.34;4988302;28;20118;-74
2022/08/16 06:50:39;;;;;;;18.00;15.63;;;;;;;-140.72;100.00;52307.66;4973228;28;20031;-73
2022/08/16 06:53:05;;;;;;;20.77;16.90;;;;;;;-140.72;100.00;52293.47;4988544;28;20495;-73
2022/08/16 06:55:33;;;;;;;20.92;16.48;;;;;;;-140.72;100.00;52301.59;4973781;28;20420;-74
2022/08/16 06:57:59;;;;;;;17.58;14.63;;;;;;;-140.72;100.00;52279.25;4972740;28;20031;-74
2022/08/16 07:00:24;;;;;;;20.75;15.50;;;;;;;-140.72;100.00;52299.56;4971648;28;20093;-74
2022/08/16 07:02:51;;;;;;;20.60;15.35;;;;;;;-140.72;100.00;52289.41;4989037;28;20027;-74
2022/08/16 07:05:17;;;;;;;17.95;14.18;;;;;;;-140.72;100.00;52269.13;4971331;28;20693;-74
2022/08/16 07:07:47;;;;;;;17.73;15.13;;;;;;;-140.72;100.00;52287.38;4979380;28;20115;-73
2022/08/16 07:10:12;;;;;;;23.17;15.02;;;;;;;-140.72;100.00;52295.50;4981635;28;20031;-73
2022/08/16 07:12:38;;;;;;;17.27;15.13;;;;;;;-140.72;100.00;52325.94;4964702;28;20114;-75
2022/08/16 07:15:04;;;;;;;20.85;17.65;;;;;;;-140.72;100.00;52325.94;4968707;28;20093;-75
2022/08/16 07:17:31;;;;;;;23.48;16.17;;;;;;;-140.72;100.00;52277.22;4971410;28;20062;-75
2022/08/16 07:19:58;;;;;;;21.95;15.95;;;;;;;-140.72;100.00;52285.34;4972993;28;20035;-75
2022/08/16 07:22:24;;;;;;;23.50;17.35;;;;;;;-140.72;100.00;52265.06;4973458;28;20412;-72
2022/08/16 07:24:49;;;;;;;18.75;15.88;;;;;;;-140.72;100.00;52240.72;4972223;28;20023;-73
2022/08/16 07:27:15;;;;;;;20.63;15.23;;;;;;;-140.72;100.00;52267.09;4971840;28;20092;-74
2022/08/16 07:29:40;;;;;;;20.63;14.82;;;;;;;-140.72;100.00;52238.69;4973395;28;20070;-73
2022/08/16 07:32:06;;;;;;;18.25;14.63;;;;;;;-140.72;100.00;52240.72;4970940;28;20490;-73
2022/08/16 07:34:32;;;;;;;17.90;14.88;;;;;;;-140.72;100.00;52269.13;4971595;28;20047;-73
2022/08/16 07:36:59;;;;;;;20.60;14.32;;;;;;;-140.72;100.00;52287.38;4971904;28;20026;-73
2022/08/16 07:39:25;;;;;;;17.23;14.73;;;;;;;-140.72;100.00;52258.97;4971925;28;20250;-74
2022/08/16 07:41:50;;;;;;;20.77;16.60;;;;;;;-140.72;100.00;52267.09;4987613;28;20523;-73
2022/08/16 07:44:16;;;;;;;19.23;14.23;;;;;;;-140.72;100.00;52265.06;4974570;28;20031;-73
2022/08/16 07:46:41;;;;;;;19.48;15.80;;;;;;;-140.72;100.00;52224.47;4972554;28;20023;-74
2022/08/16 07:49:07;;;;;;;19.83;16.17;;;;;;;-140.72;100.00;52232.59;4970899;28;20395;-74
2022/08/16 07:51:36;;;;;;;20.73;14.90;;;;;;;-140.72;100.00;52236.66;4971398;28;20034;-74
2022/08/16 07:54:07;;;;;;;21.45;15.70;;;;;;;-140.72;100.00;52252.88;4970365;28;20030;-74
2022/08/16 07:56:32;;;;;;;19.02;16.10;;;;;;;-140.72;100.00;52242.75;4972858;28;20023;-73
2022/08/16 07:58:58;;;;;;;21.30;15.65;;;;;;;-140.72;100.00;52242.75;4970431;28;20042;-73
2022/08/16 08:01:24;;;;;;;22.40;16.42;;;;;;;-140.72;100.00;52224.47;4987005;28;20014;-74
2022/08/16 08:03:51;;;;;;;20.45;16.50;;;;;;;-140.72;100.00;52206.22;4987216;28;20033;-73
2022/08/16 08:06:17;;;;;;;22.27;17.33;;;;;;;-140.72;100.00;52228.53;4987184;28;20026;-73
2022/08/16 08:08:43;;;;;;;19.25;16.38;;;;;;;-140.72;100.00;52212.31;4969808;28;20027;-74
2022/08/16 08:11:08;;;;;;;20.80;16.17;;;;;;;-140.72;100.00;52216.34;4979117;28;20398;-73
2022/08/16 08:13:34;;;;;;;17.70;15.18;;;;;;;-140.72;100.00;52204.19;4986248;28;20532;-73
2022/08/16 08:15:59;;;;;;;21.23;15.73;;;;;;;-140.72;100.00;52240.72;4971007;28;20122;-73
2022/08/16 08:18:25;;;;;;;20.50;16.73;;;;;;;-140.72;100.00;52194.03;4971078;28;20028;-74
2022/08/16 08:20:50;;;;;;;22.17;16.52;;;;;;;-140.72;100.00;52210.28;4970916;28;20093;-73
2022/08/16 08:23:19;;;;;;;17.05;14.52;;;;;;;-140.72;100.00;52202.16;4967558;28;20030;-73
2022/08/16 08:25:45;;;;;;;18.23;14.60;;;;;;;-140.72;100.00;52228.53;4959707;28;20035;-74
2022/08/16 08:28:11;;;;;;;19.73;15.38;;;;;;;-140.72;100.00;52189.97;4981017;28;20015;-74
2022/08/16 08:30:37;;;;;;;18.63;13.63;;;;;;;-140.72;100.00;52161.56;4959995;28;20027;-72
2022/08/16 08:33:02;;;;;;;18.30;14.65;;;;;;;-140.72;100.00;52149.41;4970296;28;20047;-73
2022/08/16 08:35:28;;;;;;;16.70;14.73;;;;;;;-140.72;100.00;52165.63;4970442;28;20066;-74
2022/08/16 08:37:54;;;;;;;15.07;13.43;;;;;;;-140.72;100.00;52133.16;4970621;28;20042;-73
2022/08/16 08:40:21;;;;;;;17.00;14.52;;;;;;;-140.72;100.00;52183.91;4970633;28;20035;-73
2022/08/16 08:42:46;;;;;;;17.23;14.63;;;;;;;-140.72;100.00;52139.25;4959854;28;20059;-74
2022/08/16 08:45:12;;;;;;;18.27;14.30;;;;;;;-140.72;100.00;52155.50;4972037;28;20112;-73
2022/08/16 08:47:38;;;;;;;17.05;14.52;;;;;;;-140.72;100.00;52116.94;4970798;28;20046;-73
2022/08/16 08:50:09;;;;;;;18.77;14.65;;;;;;;-140.72;100.00;52112.88;4971504;28;20041;-74
2022/08/16 08:52:41;;;;;;;17.95;13.90;;;;;;;-140.72;100.00;52102.75;4986377;28;20129;-74
2022/08/16 08:55:10;;;;;;;21.02;15.50;;;;;;;-140.72;100.00;52116.94;4978686;28;20499;-74
2022/08/16 08:57:35;;;;;;;17.77;13.77;;;;;;;-140.72;100.00;52090.56;4985576;28;20038;-73
2022/08/16 09:00:03;;;;;;;18.67;14.68;;;;;;;-140.72;100.00;52112.88;4971227;28;20026;-73
2022/08/16 09:02:32;;;;;;;21.23;14.68;;;;;;;-140.72;100.00;52110.84;4970075;28;20027;-73
2022/08/16 09:04:57;;;;;;;23.07;14.47;;;;;;;-140.72;100.00;52088.53;4956602;28;20498;-74
2022/08/16 09:07:23;;;;;;;15.70;13.23;;;;;;;-140.72;100.00;52033.75;4971347;28;20290;-73
2022/08/16 09:09:54;;;;;;;18.20;13.00;;;;;;;-140.72;100.00;52033.75;4969084;28;20019;-73
2022/08/16 09:12:19;;;;;;;15.50;13.00;;;;;;;-140.72;100.00;52003.31;4969412;28;20053;-73
2022/08/16 09:14:45;;;;;;;16.77;12.45;;;;;;;-140.72;100.00;51989.13;4969699;28;20395;-73
2022/08/16 09:17:14;;;;;;;18.25;13.02;;;;;;;-140.72;100.00;52039.84;4969181;28;20033;-73
2022/08/16 09:19:39;;;;;;;15.25;11.73;;;;;;;-140.72;100.00;52031.72;4970064;28;20127;-73
2022/08/16 09:22:05;;;;;;;15.55;11.18;;;;;;;-140.72;100.00;52013.47;4972800;28;20047;-73
2022/08/16 09:24:32;;;;;;;11.43;10.00;;;;;;;-140.72;100.00;52041.88;4969349;28;20026;-73
2022/08/16 09:26:58;;;;;;;14.32;11.02;;;;;;;-140.72;100.00;51999.25;4974074;28;20045;-74
2022/08/16 09:29:23;;;;;;;12.10;10.30;;;;;;;-140.72;91.01;52005.34;4973842;28;20034;-73
2022/08/16 09:31:49;;;;;;;11.82;9.52;;;;;;;-140.72;62.70;51981.00;4974896;28;20022;-73
2022/08/16 09:34:15;;;;;;;13.55;10.82;;;;;;;-140.72;28.67;51958.69;4972820;28;20058;-73
2022/08/16 09:36:40;;;;;;;10.57;9.00;;;;;;;-140.72;27.90;51960.72;4975328;28;20023;-73
2022/08/16 09:39:06;;;;;;;11.57;9.30;;;;;;;-140.72;0.00;51916.06;4974590;28;20045;-73
2022/08/16 09:41:32;;;;;;;12.50;9.18;;;;;;;-140.72;0.00;51944.47;4990103;28;20421;-73
2022/08/16 09:43:58;;;;;;;12.65;8.60;;;;;;;-140.72;0.00;51893.75;4975202;28;20475;-74
2022/08/16 09:46:24;;;;;;;10.98;7.88;;;;;;;-140.72;0.00;51950.56;4972861;28;20026;-73
2022/08/16 09:48:51;;;;;;;9.80;7.78;;;;;;;-140.72;0.00;51946.50;4975270;28;20055;-73
2022/08/16 09:51:17;;;;;;;8.98;7.78;;;;;;;-140.72;0.00;51926.22;4974264;28;20030;-72
2022/08/16 09:53:44;;;;;;;10.93;6.88;;;;;;;-140.72;0.00;51907.97;4977392;28;20035;-73
2022/08/16 09:56:24;;;;;;;8.98;6.78;;;;;;;-140.72;0.00;51920.13;4974280;28;20479;-73
2022/08/16 09:58:49;;;;;;;9.20;8.30;;;;;;;-140.72;0.00;51914.03;4974561;28;20787;-72
2022/08/16 10:01:18;;;;;;;11.20;7.97;;;;;;;-140.72;0.00;51964.78;4964607;28;20130;-73
2022/08/16 10:03:43;;;;;;;8.67;7.60;;;;;;;-140.72;0.00;51930.28;4969881;28;20074;-73
2022/08/16 10:06:09;;;;;;;10.90;7.18;;;;;;;-140.72;0.00;51934.34;4988597;28;20663;-72
2022/08/16 10:08:39;;;;;;;11.43;7.43;;;;;;;-140.72;0.00;51930.28;4962533;28;20109;-74
2022/08/16 10:13:48;;;;;;;10.93;6.78;;;;;;;-140.72;0.00;51970.84;4973558;28;20494;-73
2022/08/16 10:16:13;;;;;;;7.53;6.07;;;;;;;-140.72;0.00;51910.00;4988982;28;20022;-73
2022/08/16 10:18:46;;;;;;;8.73;6.60;;;;;;;-140.72;0.00;51936.38;4972878;28;20493;-73
2022/08/16 10:21:14;;;;;;;9.20;6.95;;;;;;;-140.72;0.00;51968.81;4972445;28;20126;-73
2022/08/16 10:23:40;;;;;;;7.68;6.30;;;;;;;-140.72;0.00;51940.41;4974564;28;20491;-73
2022/08/16 10:26:08;;;;;;;8.82;6.30;;;;;;;-140.72;0.00;51887.66;4972588;28;20131;-74
2022/08/16 10:28:33;;;;;;;7.68;5.50;;;;;;;-140.72;0.00;51867.38;4973920;28;20030;-73
2022/08/16 10:31:00;;;;;;;7.90;6.22;;;;;;;-140.72;0.00;51897.81;4973700;28;20074;-73
2022/08/16 10:33:27;;;;;;;6.38;5.50;;;;;;;-140.72;0.00;51918.09;4966601;28;20046;-73
2022/08/16 10:35:53;;;;;;;7.15;5.60;;;;;;;-140.72;0.00;51946.50;4968320;28;20097;-73
2022/08/16 10:38:18;;;;;;;8.63;5.93;;;;;;;-140.72;0.00;51934.34;4974325;28;20035;-74
2022/08/16 10:40:44;;;;;;;6.65;5.15;;;;;;;-140.72;0.00;51942.44;4972781;28;20035;-73
2022/08/16 10:43:10;;;;;;;5.63;5.05;;;;;;;-140.72;0.00;51974.91;4972317;28;20030;-74
2022/08/16 10:45:35;;;;;;;5.82;5.07;;;;;;;-140.72;0.00;52029.69;4972520;28;20023;-74
2022/08/16 10:48:02;;;;;;;8.73;6.20;;;;;;;-140.72;0.00;52021.56;4972677;28;20042;-74
2022/08/16 10:50:28;;;;;;;9.30;6.85;;;;;;;-140.72;0.00;52017.53;4971528;28;20479;-73
2022/08/16 10:52:53;;;;;;;8.95;7.57;;;;;;;-140.72;0.00;52047.97;4973187;28;20037;-73
2022/08/16 10:55:20;;;;;;;10.32;7.32;;;;;;;-140.72;0.00;52043.91;4971421;28;20046;-71
2022/08/16 10:57:47;;;;;;;8.07;7.03;;;;;;;-140.72;0.00;52007.38;4974147;28;20026;-73
2022/08/16 11:00:17;;;;;;;9.38;7.32;;;;;;;-140.72;0.00;51968.81;4973399;28;20030;-73
2022/08/16 11:02:45;;;;;;;8.75;6.60;;;;;;;-140.72;0.00;51974.91;4971944;28;20459;-72
2022/08/16 11:05:14;;;;;;;8.95;7.38;;;;;;;-140.72;0.00;51946.50;4971684;28;20038;-75